Terminal Aerodrome Forecast
Issued by NWS Amarillo, TX

Home | Current Version | Previous Version | Text Only | Print | Product List | Glossary On
Versions: 1 2 3 4 5 6 7 8 9 10 11 12 13 14 15 16 17 18
225
FTUS44 KAMA 240528
TAFAMA
TAF
KAMA 240528Z 2406/2506 21014KT P6SM FEW300
     FM241100 23018G28KT P6SM SCT300
     FM241700 25030G40KT P6SM SCT300
     FM250000 26013KT P6SM SCT300=

USA.gov is the U.S. government's official web portal to all federal, state and local government web resources and services.